createdAt,value
2023-05-16T00:00:46.251Z,10.27
2023-05-16T00:03:12.752Z,12.00
2023-05-16T00:05:39.283Z,10.03
2023-05-16T00:08:06.153Z,10.85
2023-05-16T00:10:32.531Z,9.60
2023-05-16T00:13:01.803Z,9.90
2023-05-16T00:15:29.672Z,11.67
2023-05-16T00:18:00.184Z,10.40
2023-05-16T00:20:28.630Z,10.67
2023-05-16T00:22:55.394Z,12.50
2023-05-16T00:25:21.836Z,10.43
2023-05-16T00:27:48.214Z,15.10
2023-05-16T00:30:14.627Z,13.20
2023-05-16T00:32:41.054Z,12.30
2023-05-16T00:35:10.422Z,11.43
2023-05-16T00:37:37.542Z,14.03
2023-05-16T00:40:05.038Z,12.00
2023-05-16T00:42:31.580Z,13.47
2023-05-16T00:44:57.957Z,13.27
2023-05-16T00:47:24.362Z,12.43
2023-05-16T00:49:50.822Z,13.83
2023-05-16T00:52:17.212Z,13.70
2023-05-16T00:54:43.989Z,13.60
2023-05-16T00:57:10.535Z,16.33
2023-05-16T00:59:37.028Z,16.00
2023-05-16T01:02:03.471Z,14.53
2023-05-16T01:04:31.089Z,17.00
2023-05-16T01:06:57.951Z,18.50
2023-05-16T01:09:24.451Z,16.57
2023-05-16T01:11:57.461Z,17.47
2023-05-16T01:14:42.553Z,17.77
2023-05-16T01:17:20.438Z,18.20
2023-05-16T01:20:00.493Z,21.53
2023-05-16T01:22:38.588Z,21.47
2023-05-16T01:25:45.816Z,20.67
2023-05-16T01:28:14.845Z,21.03
2023-05-16T01:30:41.615Z,19.40
2023-05-16T01:33:08.841Z,20.57
2023-05-16T01:36:04.216Z,19.70
2023-05-16T01:38:39.257Z,21.50
2023-05-16T01:41:25.384Z,22.50
2023-05-16T01:43:57.409Z,20.77
2023-05-16T01:46:26.740Z,22.90
2023-05-16T01:49:01.469Z,21.00
2023-05-16T01:51:33.266Z,21.37
2023-05-16T01:54:05.482Z,19.80
2023-05-16T01:56:32.918Z,19.57
2023-05-16T01:59:00.669Z,19.80
2023-05-16T02:01:27.147Z,25.40
2023-05-16T02:03:53.596Z,18.40
2023-05-16T02:06:20.258Z,21.17
2023-05-16T02:08:46.636Z,17.97
2023-05-16T02:11:13.033Z,19.47
2023-05-16T02:13:39.399Z,18.97
2023-05-16T02:16:05.850Z,20.00
2023-05-16T02:18:32.717Z,18.63
2023-05-16T02:20:59.363Z,20.70
2023-05-16T02:23:25.813Z,17.30
2023-05-16T02:25:52.218Z,24.50
2023-05-16T02:28:18.630Z,18.70
2023-05-16T02:30:45.026Z,20.13
2023-05-16T02:33:11.633Z,18.33
2023-05-16T02:35:38.095Z,20.67
2023-05-16T02:38:04.473Z,20.63
2023-05-16T02:40:31.034Z,19.87
2023-05-16T02:42:57.414Z,20.20
2023-05-16T02:45:23.799Z,20.17
2023-05-16T02:47:50.263Z,20.53
2023-05-16T02:50:16.671Z,22.17
2023-05-16T02:52:43.048Z,19.40
2023-05-16T02:55:35.778Z,19.73
2023-05-16T02:57:55.899Z,21.70
2023-05-16T03:00:22.501Z,21.47
2023-05-16T03:02:49.023Z,22.17
2023-05-16T03:05:15.457Z,22.53
2023-05-16T03:07:41.822Z,23.30
2023-05-16T03:10:08.687Z,18.90
2023-05-16T03:12:35.069Z,21.00
2023-05-16T03:15:01.801Z,19.13
2023-05-16T03:17:28.697Z,21.47
2023-05-16T03:19:55.160Z,21.33
2023-05-16T03:22:21.551Z,21.73
2023-05-16T03:24:47.987Z,21.63
2023-05-16T03:27:14.384Z,20.10
2023-05-16T03:29:40.988Z,22.63
2023-05-16T03:32:07.532Z,23.20
2023-05-16T03:34:34.077Z,21.83
2023-05-16T03:37:00.464Z,21.63
2023-05-16T03:39:26.837Z,21.87
2023-05-16T03:41:56.095Z,25.43
2023-05-16T03:44:22.532Z,26.60
2023-05-16T03:46:51.475Z,23.90
2023-05-16T03:49:17.920Z,22.67
2023-05-16T03:51:44.289Z,25.53
2023-05-16T03:54:10.799Z,27.70
2023-05-16T03:56:37.168Z,22.10
2023-05-16T03:59:03.695Z,24.00
2023-05-16T04:01:30.223Z,24.10
2023-05-16T04:03:56.629Z,23.83
2023-05-16T04:06:23.103Z,22.77
2023-05-16T04:08:49.590Z,22.47
2023-05-16T04:11:15.965Z,25.80
2023-05-16T04:13:42.348Z,23.00
2023-05-16T04:16:08.768Z,23.23
2023-05-16T04:18:35.237Z,23.17
2023-05-16T04:21:01.721Z,23.37
2023-05-16T04:23:28.254Z,24.27
2023-05-16T04:25:56.413Z,24.17
2023-05-16T04:28:23.123Z,35.27
2023-05-16T04:30:50.358Z,25.37
2023-05-16T04:33:16.938Z,28.13
2023-05-16T04:35:43.372Z,25.53
2023-05-16T04:38:09.732Z,26.10
2023-05-16T04:40:36.086Z,25.23
2023-05-16T04:43:02.453Z,26.17
2023-05-16T04:45:29.108Z,27.33
2023-05-16T04:47:55.772Z,30.60
2023-05-16T04:50:22.196Z,27.53
2023-05-16T04:52:48.583Z,25.73
2023-05-16T04:55:15.012Z,29.80
2023-05-16T04:57:41.428Z,26.97
2023-05-16T05:00:10.170Z,28.27
2023-05-16T05:02:36.676Z,26.73
2023-05-16T05:05:03.429Z,26.83
2023-05-16T05:07:29.993Z,24.83
2023-05-16T05:09:56.445Z,24.27
2023-05-16T05:12:23.049Z,26.47
2023-05-16T05:14:49.631Z,27.70
2023-05-16T05:17:16.794Z,26.77
2023-05-16T05:19:43.359Z,23.03
2023-05-16T05:22:09.751Z,27.73
2023-05-16T05:24:36.331Z,29.97
2023-05-16T05:27:02.826Z,25.07
2023-05-16T05:29:29.195Z,21.30
2023-05-16T05:31:55.690Z,26.20
2023-05-16T05:34:22.180Z,24.07
2023-05-16T05:36:48.552Z,24.70
2023-05-16T05:39:14.928Z,24.53
2023-05-16T05:41:41.298Z,26.77
2023-05-16T05:44:07.662Z,26.10
2023-05-16T05:46:34.318Z,22.27
2023-05-16T05:49:01.307Z,24.13
2023-05-16T05:51:27.988Z,20.13
2023-05-16T05:53:54.524Z,19.87
2023-05-16T05:56:21.410Z,17.97
2023-05-16T05:58:47.956Z,18.23
2023-05-16T06:01:14.519Z,19.97
2023-05-16T06:03:40.943Z,15.50
2023-05-16T06:06:07.951Z,17.53
2023-05-16T06:08:34.467Z,15.90
2023-05-16T06:11:01.541Z,16.70
2023-05-16T06:13:27.925Z,14.43
2023-05-16T06:15:54.551Z,17.00
2023-05-16T06:18:21.280Z,15.47
2023-05-16T06:20:47.654Z,14.70
2023-05-16T06:23:14.046Z,14.10
2023-05-16T06:25:40.417Z,19.73
2023-05-16T06:28:06.783Z,14.37
2023-05-16T06:30:33.154Z,14.20
2023-05-16T06:32:59.696Z,16.63
2023-05-16T06:35:26.398Z,14.57
2023-05-16T06:37:52.907Z,13.23
2023-05-16T06:40:19.286Z,14.47
2023-05-16T06:42:45.732Z,13.63
2023-05-16T06:45:12.270Z,12.87
2023-05-16T06:47:38.787Z,12.03
2023-05-16T06:50:06.069Z,12.33
2023-05-16T06:52:32.469Z,13.93
2023-05-16T06:54:58.874Z,11.43
2023-05-16T06:57:25.329Z,10.83
2023-05-16T06:59:51.746Z,10.60
2023-05-16T07:02:18.211Z,11.63
2023-05-16T07:04:44.669Z,13.27
2023-05-16T07:07:11.100Z,11.97
2023-05-16T07:09:37.549Z,15.00
2023-05-16T07:12:04.351Z,9.10
2023-05-16T07:14:30.766Z,10.50
2023-05-16T07:16:57.199Z,8.73
2023-05-16T07:19:23.835Z,9.47
2023-05-16T07:21:50.374Z,10.33
2023-05-16T07:24:16.794Z,12.27
2023-05-16T07:26:43.431Z,10.60
2023-05-16T07:29:09.874Z,10.30
2023-05-16T07:31:36.373Z,10.27
2023-05-16T07:34:02.847Z,10.00
2023-05-16T07:36:29.319Z,7.20
2023-05-16T07:38:55.736Z,8.77
2023-05-16T07:41:22.210Z,8.33
2023-05-16T07:43:48.727Z,8.30
2023-05-16T07:46:15.455Z,11.97
2023-05-16T07:48:42.000Z,7.47
2023-05-16T07:51:08.499Z,8.00
2023-05-16T07:53:34.950Z,6.57
2023-05-16T07:56:01.440Z,8.83
2023-05-16T07:58:27.883Z,6.17
2023-05-16T08:00:54.597Z,6.97
2023-05-16T08:03:21.286Z,8.80
2023-05-16T08:05:49.080Z,11.70
2023-05-16T08:08:15.653Z,8.03
2023-05-16T08:10:42.086Z,9.43
2023-05-16T08:13:08.571Z,8.37
2023-05-16T08:15:35.836Z,5.47
2023-05-16T08:18:02.354Z,8.50
2023-05-16T08:20:28.845Z,6.27
2023-05-16T08:22:55.335Z,7.40
2023-05-16T08:25:21.754Z,7.27
2023-05-16T08:27:49.865Z,5.60
2023-05-16T08:30:16.373Z,6.97
2023-05-16T08:32:42.934Z,4.97
2023-05-16T08:35:11.026Z,7.77
2023-05-16T08:37:37.559Z,8.83
2023-05-16T08:40:05.794Z,5.93
2023-05-16T08:42:33.768Z,5.53
2023-05-16T08:45:00.287Z,8.50
2023-05-16T08:47:30.021Z,6.17
2023-05-16T08:49:58.400Z,8.63
2023-05-16T08:52:30.587Z,8.27
2023-05-16T08:55:10.073Z,7.83
2023-05-16T08:57:38.871Z,7.57
2023-05-16T09:00:11.889Z,5.20
2023-05-16T09:02:43.216Z,5.27
2023-05-16T09:05:12.608Z,6.50
2023-05-16T09:07:39.260Z,7.43
2023-05-16T09:10:07.026Z,6.87
2023-05-16T09:12:34.022Z,6.97
2023-05-16T09:15:03.114Z,8.23
2023-05-16T09:17:44.231Z,9.27
2023-05-16T09:20:16.539Z,5.93
2023-05-16T09:22:56.858Z,5.03
2023-05-16T09:25:31.486Z,5.30
2023-05-16T09:28:01.448Z,5.90
2023-05-16T09:30:33.714Z,6.80
2023-05-16T09:33:00.465Z,6.37
2023-05-16T09:37:56.782Z,6.57
2023-05-16T09:40:24.060Z,11.23
2023-05-16T09:43:07.173Z,7.87
2023-05-16T09:45:35.299Z,7.50
2023-05-16T09:48:08.396Z,5.83
2023-05-16T09:50:37.196Z,9.17
2023-05-16T09:53:04.106Z,5.87
2023-05-16T09:55:31.521Z,9.50
2023-05-16T09:57:58.226Z,4.33
2023-05-16T10:00:33.549Z,8.23
2023-05-16T10:03:04.769Z,11.07
2023-05-16T10:05:32.838Z,7.30
2023-05-16T10:07:59.850Z,10.60
2023-05-16T10:10:27.207Z,6.63
2023-05-16T10:12:58.619Z,9.33
2023-05-16T10:15:26.046Z,8.57
2023-05-16T10:17:56.500Z,9.00
2023-05-16T10:20:24.226Z,7.27
2023-05-16T10:22:55.175Z,6.87
2023-05-16T10:25:38.893Z,8.37
2023-05-16T10:28:07.094Z,9.60
2023-05-16T10:30:34.901Z,7.70
2023-05-16T10:33:04.245Z,9.33
2023-05-16T10:35:35.063Z,12.27
2023-05-16T10:38:02.581Z,6.07
2023-05-16T10:40:30.475Z,9.97
2023-05-16T10:43:02.070Z,8.70
2023-05-16T10:45:29.044Z,12.40
2023-05-16T10:47:58.890Z,11.27
2023-05-16T10:50:45.398Z,12.00
2023-05-16T10:53:31.577Z,16.80
2023-05-16T10:56:01.209Z,11.43
2023-05-16T10:58:35.084Z,11.23
2023-05-16T11:01:20.668Z,9.97
2023-05-16T11:04:02.543Z,10.33
2023-05-16T11:06:33.089Z,6.87
2023-05-16T11:09:10.164Z,10.03
2023-05-16T11:11:49.417Z,11.40
2023-05-16T11:14:25.826Z,10.07
2023-05-16T11:17:03.407Z,14.07
2023-05-16T11:19:34.185Z,11.17
2023-05-16T11:22:11.718Z,12.83
2023-05-16T11:24:39.716Z,13.13
2023-05-16T11:27:06.831Z,10.37
2023-05-16T11:29:35.071Z,15.40
2023-05-16T11:32:03.737Z,8.47
2023-05-16T11:34:31.605Z,11.67
2023-05-16T11:37:00.123Z,13.53
2023-05-16T11:39:26.640Z,11.67
2023-05-16T11:41:56.076Z,11.27
2023-05-16T11:44:22.490Z,12.23
2023-05-16T11:46:48.926Z,11.93
2023-05-16T11:49:15.546Z,10.80
2023-05-16T11:51:43.339Z,14.43
2023-05-16T11:54:10.507Z,9.90
2023-05-16T11:56:37.415Z,9.93
2023-05-16T11:59:04.490Z,11.20
2023-05-16T12:01:39.041Z,14.90
2023-05-16T12:04:13.698Z,8.83
2023-05-16T12:06:41.011Z,10.70
2023-05-16T12:09:11.580Z,10.50
2023-05-16T12:11:38.511Z,13.43
2023-05-16T12:14:10.362Z,8.47
2023-05-16T12:16:38.907Z,11.10
2023-05-16T12:19:07.079Z,8.43
2023-05-16T12:21:34.056Z,14.57
2023-05-16T12:24:00.799Z,7.63
2023-05-16T12:26:30.766Z,13.90
2023-05-16T12:29:00.734Z,11.10
2023-05-16T12:31:32.347Z,8.00
2023-05-16T12:33:59.379Z,8.73
2023-05-16T12:36:26.465Z,13.10
2023-05-16T12:38:53.691Z,11.70
2023-05-16T12:41:21.699Z,9.70
2023-05-16T12:43:49.040Z,11.70
2023-05-16T12:46:16.348Z,14.50
2023-05-16T12:48:44.132Z,11.00
2023-05-16T12:51:18.203Z,15.27
2023-05-16T12:53:57.720Z,14.17
2023-05-16T12:56:32.397Z,10.70
2023-05-16T12:58:58.820Z,11.30
2023-05-16T13:01:25.349Z,10.77
2023-05-16T13:03:51.939Z,10.40
2023-05-16T13:06:18.558Z,10.18
2023-05-16T13:08:44.969Z,7.20
2023-05-16T13:11:11.390Z,7.23
2023-05-16T13:13:37.800Z,8.63
2023-05-16T13:16:04.450Z,8.75
2023-05-16T13:18:31.573Z,6.55
2023-05-16T13:20:58.301Z,7.60
2023-05-16T13:23:24.750Z,9.65
2023-05-16T13:25:53.009Z,10.57
2023-05-16T13:28:19.438Z,9.20
2023-05-16T13:30:45.946Z,6.30
2023-05-16T13:33:12.596Z,6.97
2023-05-16T13:35:39.155Z,9.85
2023-05-16T13:38:05.555Z,9.43
2023-05-16T13:40:32.795Z,11.52
2023-05-16T13:43:00.948Z,7.07
2023-05-16T13:45:27.813Z,6.88
2023-05-16T13:47:54.632Z,10.27
2023-05-16T13:50:21.478Z,10.35
2023-05-16T13:52:48.752Z,12.13
2023-05-16T13:55:15.227Z,9.30
2023-05-16T13:57:41.784Z,11.32
2023-05-16T14:00:35.124Z,9.73
2023-05-16T14:02:58.891Z,9.15
2023-05-16T14:05:26.216Z,5.95
2023-05-16T14:07:52.653Z,7.85
2023-05-16T14:10:19.125Z,10.35
2023-05-16T14:12:45.534Z,6.57
2023-05-16T14:15:12.233Z,7.35
2023-05-16T14:17:38.838Z,11.15
2023-05-16T14:20:11.467Z,10.27
2023-05-16T14:22:38.491Z,6.25
2023-05-16T14:25:06.183Z,10.70
2023-05-16T14:27:32.618Z,5.22
2023-05-16T14:29:59.650Z,6.50
2023-05-16T14:32:26.196Z,6.55
2023-05-16T14:34:52.797Z,8.60
2023-05-16T14:37:20.238Z,9.73
2023-05-16T14:39:47.295Z,6.30
2023-05-16T14:42:13.733Z,8.50
2023-05-16T14:44:40.152Z,4.72
2023-05-16T14:47:06.749Z,6.57
2023-05-16T14:49:33.224Z,10.40
2023-05-16T14:51:59.684Z,7.60
2023-05-16T14:54:26.118Z,9.77
2023-05-16T14:56:52.542Z,5.43
2023-05-16T14:59:19.043Z,7.93
2023-05-16T15:01:45.566Z,7.53
2023-05-16T15:04:12.006Z,4.20
2023-05-16T15:06:38.401Z,5.18
2023-05-16T15:09:05.788Z,7.95
2023-05-16T15:11:32.247Z,9.40
2023-05-16T15:13:58.833Z,7.18
2023-05-16T15:16:25.385Z,7.82
2023-05-16T15:18:51.860Z,4.75
2023-05-16T15:21:18.315Z,7.20
2023-05-16T15:23:45.382Z,7.32
2023-05-16T15:26:11.797Z,5.45
2023-05-16T15:28:38.538Z,7.20
2023-05-16T15:31:05.850Z,6.18
2023-05-16T15:33:32.301Z,5.15
2023-05-16T15:35:58.701Z,7.53
2023-05-16T15:38:25.151Z,6.00
2023-05-16T15:41:05.079Z,6.93
2023-05-16T15:43:38.649Z,6.93
2023-05-16T15:46:06.719Z,4.10
2023-05-16T15:48:33.187Z,4.45
2023-05-16T15:50:59.641Z,5.00
2023-05-16T15:53:26.356Z,6.85
2023-05-16T15:55:52.758Z,7.68
2023-05-16T15:58:22.548Z,6.65
2023-05-16T16:00:49.224Z,6.75
2023-05-16T16:03:15.701Z,8.02
2023-05-16T16:05:42.206Z,8.35
2023-05-16T16:08:08.631Z,5.22
2023-05-16T16:10:35.288Z,4.60
2023-05-16T16:13:02.899Z,4.95
2023-05-16T16:15:33.186Z,7.03
2023-05-16T16:18:00.571Z,5.97
2023-05-16T16:20:27.199Z,5.32
2023-05-16T16:22:53.689Z,6.57
2023-05-16T16:25:20.171Z,3.70
2023-05-16T16:27:46.572Z,7.00
2023-05-16T16:30:13.110Z,4.50
2023-05-16T16:32:39.611Z,3.97
2023-05-16T16:35:06.249Z,7.97
2023-05-16T16:37:32.917Z,7.93
2023-05-16T16:39:59.461Z,7.05
2023-05-16T16:42:26.822Z,5.78
2023-05-16T16:44:53.655Z,5.78
2023-05-16T16:47:21.266Z,4.53
2023-05-16T16:49:47.674Z,4.45
2023-05-16T16:52:14.106Z,3.72
2023-05-16T16:54:40.686Z,4.57
2023-05-16T16:57:07.200Z,5.00
2023-05-16T16:59:33.620Z,4.63
2023-05-16T17:02:00.196Z,5.97
2023-05-16T17:04:26.610Z,4.75
2023-05-16T17:06:53.055Z,8.40
2023-05-16T17:09:19.782Z,4.18
2023-05-16T17:11:46.783Z,6.30
2023-05-16T17:14:14.372Z,7.22
2023-05-16T17:16:41.154Z,6.35
2023-05-16T17:19:08.884Z,6.47
2023-05-16T17:21:36.843Z,6.43
2023-05-16T17:24:03.770Z,7.65
2023-05-16T17:26:31.610Z,4.13
2023-05-16T17:29:00.158Z,6.80
2023-05-16T17:31:27.175Z,6.70
2023-05-16T17:33:53.943Z,7.65
2023-05-16T17:36:20.729Z,6.05
2023-05-16T17:38:47.676Z,8.90
2023-05-16T17:41:14.501Z,6.03
2023-05-16T17:43:41.259Z,8.10
2023-05-16T17:46:08.281Z,5.13
2023-05-16T17:48:34.754Z,5.82
2023-05-16T17:51:01.808Z,6.45
2023-05-16T17:53:29.531Z,5.97
2023-05-16T17:55:56.682Z,4.57
2023-05-16T17:58:23.457Z,7.68
2023-05-16T18:00:49.920Z,7.00
2023-05-16T18:03:16.985Z,6.57
2023-05-16T18:05:43.582Z,4.70
2023-05-16T18:08:10.057Z,4.60
2023-05-16T18:10:50.269Z,7.00
2023-05-16T18:13:17.945Z,7.32
2023-05-16T18:15:44.383Z,5.18
2023-05-16T18:18:11.058Z,4.80
2023-05-16T18:20:37.715Z,6.57
2023-05-16T18:23:04.251Z,5.82
2023-05-16T18:25:31.677Z,5.00
2023-05-16T18:27:58.089Z,5.25
2023-05-16T18:30:24.562Z,8.45
2023-05-16T18:32:51.148Z,7.35
2023-05-16T18:35:17.668Z,7.32
2023-05-16T18:37:44.548Z,7.55
2023-05-16T18:40:11.494Z,6.00
2023-05-16T18:42:37.913Z,4.23
2023-05-16T18:45:04.654Z,5.40
2023-05-16T18:47:31.435Z,6.63
2023-05-16T18:49:57.959Z,12.23
2023-05-16T18:52:24.392Z,10.37
2023-05-16T18:54:50.824Z,8.80
2023-05-16T18:57:17.667Z,5.40
2023-05-16T18:59:44.124Z,3.73
2023-05-16T19:02:10.571Z,8.73
2023-05-16T19:04:39.904Z,11.80
2023-05-16T19:07:07.934Z,7.80
2023-05-16T19:09:35.851Z,8.17
2023-05-16T19:12:03.393Z,6.73
2023-05-16T19:14:29.821Z,7.87
2023-05-16T19:16:56.266Z,6.23
2023-05-16T19:19:22.866Z,6.20
2023-05-16T19:21:49.722Z,5.80
2023-05-16T19:24:16.363Z,8.33
2023-05-16T19:26:42.785Z,5.53
2023-05-16T19:29:10.658Z,7.17
2023-05-16T19:31:37.189Z,4.43
2023-05-16T19:34:03.655Z,7.17
2023-05-16T19:36:30.206Z,3.37
2023-05-16T19:38:56.634Z,3.23
2023-05-16T19:41:24.593Z,4.87
2023-05-16T19:43:51.511Z,4.50
2023-05-16T19:46:17.931Z,5.93
2023-05-16T19:48:44.471Z,3.03
2023-05-16T19:51:10.921Z,5.90
2023-05-16T19:53:37.421Z,5.60
2023-05-16T19:56:04.695Z,5.10
2023-05-16T19:58:31.164Z,7.03
2023-05-16T20:00:58.552Z,7.93
2023-05-16T20:03:25.273Z,8.37
2023-05-16T20:05:51.814Z,6.37
2023-05-16T20:08:18.239Z,5.93
2023-05-16T20:10:44.989Z,6.57
2023-05-16T20:13:11.387Z,4.17
2023-05-16T20:15:37.811Z,6.67
2023-05-16T20:18:04.373Z,5.47
2023-05-16T20:20:30.884Z,6.87
2023-05-16T20:22:57.315Z,6.20
2023-05-16T20:25:23.719Z,7.17
2023-05-16T20:27:50.171Z,7.27
2023-05-16T20:30:16.671Z,4.97
2023-05-16T20:32:43.102Z,8.73
2023-05-16T20:35:11.187Z,5.07
2023-05-16T20:37:37.681Z,4.83
2023-05-16T20:40:05.999Z,6.30
2023-05-16T20:42:32.420Z,5.30
2023-05-16T20:44:58.839Z,5.43
2023-05-16T20:47:25.395Z,3.80
2023-05-16T20:49:51.824Z,7.77
2023-05-16T20:52:19.863Z,4.03
2023-05-16T20:54:47.721Z,5.87
2023-05-16T20:57:14.129Z,8.77
2023-05-16T20:59:40.870Z,6.43
2023-05-16T21:02:09.983Z,4.23
2023-05-16T21:04:37.423Z,5.13
2023-05-16T21:07:05.352Z,4.97
2023-05-16T21:09:33.701Z,4.87
2023-05-16T21:12:00.117Z,3.17
2023-05-16T21:14:26.591Z,3.50
2023-05-16T21:16:52.997Z,5.23
2023-05-16T21:19:19.559Z,7.30
2023-05-16T21:21:46.269Z,5.87
2023-05-16T21:24:12.659Z,6.40
2023-05-16T21:26:39.084Z,7.27
2023-05-16T21:29:05.519Z,7.53
2023-05-16T21:31:31.960Z,7.50
2023-05-16T21:33:58.465Z,5.77
2023-05-16T21:36:24.961Z,5.80
2023-05-16T21:38:51.469Z,7.80
2023-05-16T21:41:18.221Z,5.13
2023-05-16T21:43:44.690Z,5.40
2023-05-16T21:46:11.112Z,7.23
2023-05-16T21:48:37.685Z,6.73
2023-05-16T21:51:04.258Z,4.17
2023-05-16T21:53:30.661Z,4.97
2023-05-16T21:55:57.109Z,9.83
2023-05-16T21:58:25.105Z,6.27
2023-05-16T22:00:51.542Z,6.63
2023-05-16T22:03:20.933Z,4.80
2023-05-16T22:05:47.707Z,7.00
2023-05-16T22:08:14.192Z,8.87
2023-05-16T22:10:40.629Z,8.43
2023-05-16T22:13:08.040Z,10.00
2023-05-16T22:15:34.750Z,5.87
2023-05-16T22:18:01.351Z,7.53
2023-05-16T22:20:27.933Z,8.27
2023-05-16T22:22:54.349Z,8.47
2023-05-16T22:25:20.826Z,7.03
2023-05-16T22:27:47.236Z,4.80
2023-05-16T22:30:13.692Z,4.43
2023-05-16T22:32:40.213Z,6.10
2023-05-16T22:35:07.030Z,4.97
2023-05-16T22:37:33.440Z,7.73
2023-05-16T22:39:59.860Z,7.73
2023-05-16T22:42:26.310Z,10.10
2023-05-16T22:44:52.729Z,5.07
2023-05-16T22:47:19.509Z,5.13
2023-05-16T22:49:45.910Z,3.97
2023-05-16T22:52:12.344Z,4.13
2023-05-16T22:54:38.796Z,6.63
2023-05-16T22:57:05.376Z,7.30
2023-05-16T22:59:31.952Z,3.80
2023-05-16T23:01:58.791Z,6.63
2023-05-16T23:04:25.347Z,6.43
2023-05-16T23:06:51.806Z,8.30
2023-05-16T23:09:18.229Z,9.47
2023-05-16T23:11:44.638Z,3.57
2023-05-16T23:14:11.128Z,7.57
2023-05-16T23:16:37.571Z,8.83
2023-05-16T23:19:05.010Z,5.97
2023-05-16T23:21:32.537Z,8.13
2023-05-16T23:23:58.976Z,8.37
2023-05-16T23:26:25.431Z,8.23
2023-05-16T23:28:52.117Z,8.73
2023-05-16T23:31:18.526Z,10.20
2023-05-16T23:33:45.026Z,8.53
2023-05-16T23:36:11.484Z,6.50
2023-05-16T23:38:38.429Z,8.27
2023-05-16T23:41:04.887Z,9.93
2023-05-16T23:43:31.304Z,8.20
2023-05-16T23:45:57.729Z,6.63
2023-05-16T23:48:24.310Z,8.47
2023-05-16T23:50:51.474Z,6.37
2023-05-16T23:53:17.906Z,8.80
2023-05-16T23:55:44.359Z,11.30
2023-05-16T23:58:10.852Z,5.83
